sensor_id;sensor_type;location;lat;lon;timestamp;P1;durP1;ratioP1;P2;durP2;ratioP2
12493;SDS011;8260;51.422;6.786;2023-06-10T00:00:33;7.70;;;7.00;;
12493;SDS011;8260;51.422;6.786;2023-06-10T00:03:02;7.35;;;6.75;;
12493;SDS011;8260;51.422;6.786;2023-06-10T00:05:31;8.75;;;7.70;;
12493;SDS011;8260;51.422;6.786;2023-06-10T00:08:02;7.40;;;6.70;;
12493;SDS011;8260;51.422;6.786;2023-06-10T00:10:33;9.15;;;7.40;;
12493;SDS011;8260;51.422;6.786;2023-06-10T00:13:03;8.25;;;7.28;;
12493;SDS011;8260;51.422;6.786;2023-06-10T00:15:34;6.97;;;6.32;;
12493;SDS011;8260;51.422;6.786;2023-06-10T00:18:03;7.65;;;6.93;;
12493;SDS011;8260;51.422;6.786;2023-06-10T00:20:32;8.00;;;7.20;;
12493;SDS011;8260;51.422;6.786;2023-06-10T00:23:03;7.72;;;7.03;;
12493;SDS011;8260;51.422;6.786;2023-06-10T00:25:34;7.82;;;6.68;;
12493;SDS011;8260;51.422;6.786;2023-06-10T00:28:03;7.82;;;6.95;;
12493;SDS011;8260;51.422;6.786;2023-06-10T00:30:31;7.57;;;6.88;;
12493;SDS011;8260;51.422;6.786;2023-06-10T00:33:00;7.88;;;7.20;;
12493;SDS011;8260;51.422;6.786;2023-06-10T00:35:29;7.45;;;6.70;;
12493;SDS011;8260;51.422;6.786;2023-06-10T00:37:57;8.27;;;7.57;;
12493;SDS011;8260;51.422;6.786;2023-06-10T00:40:27;8.98;;;7.78;;
12493;SDS011;8260;51.422;6.786;2023-06-10T00:42:56;8.63;;;7.93;;
12493;SDS011;8260;51.422;6.786;2023-06-10T00:45:24;8.30;;;7.50;;
12493;SDS011;8260;51.422;6.786;2023-06-10T00:47:53;7.95;;;7.20;;
12493;SDS011;8260;51.422;6.786;2023-06-10T00:50:22;8.25;;;7.43;;
12493;SDS011;8260;51.422;6.786;2023-06-10T00:52:50;8.75;;;7.95;;
12493;SDS011;8260;51.422;6.786;2023-06-10T00:55:21;8.43;;;7.13;;
12493;SDS011;8260;51.422;6.786;2023-06-10T00:57:51;8.15;;;7.38;;
12493;SDS011;8260;51.422;6.786;2023-06-10T01:00:19;8.43;;;7.20;;
12493;SDS011;8260;51.422;6.786;2023-06-10T01:02:48;8.93;;;7.55;;
12493;SDS011;8260;51.422;6.786;2023-06-10T01:05:19;7.90;;;7.20;;
12493;SDS011;8260;51.422;6.786;2023-06-10T01:07:49;10.50;;;7.63;;
12493;SDS011;8260;51.422;6.786;2023-06-10T01:10:20;9.00;;;8.20;;
12493;SDS011;8260;51.422;6.786;2023-06-10T01:12:55;8.88;;;7.93;;
12493;SDS011;8260;51.422;6.786;2023-06-10T01:15:25;9.90;;;8.10;;
12493;SDS011;8260;51.422;6.786;2023-06-10T01:17:55;9.30;;;8.40;;
12493;SDS011;8260;51.422;6.786;2023-06-10T01:20:25;9.50;;;8.52;;
12493;SDS011;8260;51.422;6.786;2023-06-10T01:22:56;8.90;;;7.68;;
12493;SDS011;8260;51.422;6.786;2023-06-10T01:25:26;9.48;;;8.30;;
12493;SDS011;8260;51.422;6.786;2023-06-10T01:27:57;10.25;;;7.75;;
12493;SDS011;8260;51.422;6.786;2023-06-10T01:30:30;9.32;;;7.53;;
12493;SDS011;8260;51.422;6.786;2023-06-10T01:33:03;9.35;;;8.38;;
12493;SDS011;8260;51.422;6.786;2023-06-10T01:35:35;8.77;;;7.97;;
12493;SDS011;8260;51.422;6.786;2023-06-10T01:38:06;9.18;;;7.68;;
12493;SDS011;8260;51.422;6.786;2023-06-10T01:40:35;9.60;;;8.70;;
12493;SDS011;8260;51.422;6.786;2023-06-10T01:43:05;8.82;;;8.02;;
12493;SDS011;8260;51.422;6.786;2023-06-10T01:45:33;9.32;;;8.25;;
12493;SDS011;8260;51.422;6.786;2023-06-10T01:48:02;8.45;;;7.63;;
12493;SDS011;8260;51.422;6.786;2023-06-10T01:50:30;9.20;;;8.40;;
12493;SDS011;8260;51.422;6.786;2023-06-10T01:52:59;8.75;;;7.95;;
12493;SDS011;8260;51.422;6.786;2023-06-10T01:55:29;9.20;;;8.43;;
12493;SDS011;8260;51.422;6.786;2023-06-10T01:57:58;9.10;;;8.30;;
12493;SDS011;8260;51.422;6.786;2023-06-10T02:00:26;8.65;;;7.78;;
12493;SDS011;8260;51.422;6.786;2023-06-10T02:02:55;9.35;;;8.30;;
12493;SDS011;8260;51.422;6.786;2023-06-10T02:05:23;8.82;;;7.97;;
12493;SDS011;8260;51.422;6.786;2023-06-10T02:07:52;9.40;;;8.50;;
12493;SDS011;8260;51.422;6.786;2023-06-10T02:10:21;10.45;;;8.65;;
12493;SDS011;8260;51.422;6.786;2023-06-10T02:12:51;9.20;;;8.30;;
12493;SDS011;8260;51.422;6.786;2023-06-10T02:15:19;9.82;;;8.85;;
12493;SDS011;8260;51.422;6.786;2023-06-10T02:17:47;8.85;;;7.97;;
12493;SDS011;8260;51.422;6.786;2023-06-10T02:20:17;9.43;;;8.60;;
12493;SDS011;8260;51.422;6.786;2023-06-10T02:22:45;9.85;;;8.82;;
12493;SDS011;8260;51.422;6.786;2023-06-10T02:25:14;9.85;;;8.45;;
12493;SDS011;8260;51.422;6.786;2023-06-10T02:27:43;10.95;;;8.50;;
12493;SDS011;8260;51.422;6.786;2023-06-10T02:30:13;9.13;;;8.23;;
12493;SDS011;8260;51.422;6.786;2023-06-10T02:32:42;9.20;;;8.27;;
12493;SDS011;8260;51.422;6.786;2023-06-10T02:35:15;8.68;;;7.88;;
12493;SDS011;8260;51.422;6.786;2023-06-10T02:37:43;10.60;;;8.73;;
12493;SDS011;8260;51.422;6.786;2023-06-10T02:40:12;12.55;;;9.25;;
12493;SDS011;8260;51.422;6.786;2023-06-10T02:42:40;9.88;;;8.98;;
12493;SDS011;8260;51.422;6.786;2023-06-10T02:45:10;10.15;;;8.88;;
12493;SDS011;8260;51.422;6.786;2023-06-10T02:47:40;9.07;;;8.32;;
12493;SDS011;8260;51.422;6.786;2023-06-10T02:50:08;9.98;;;8.98;;
12493;SDS011;8260;51.422;6.786;2023-06-10T02:52:37;9.82;;;8.82;;
12493;SDS011;8260;51.422;6.786;2023-06-10T02:55:06;13.48;;;8.90;;
12493;SDS011;8260;51.422;6.786;2023-06-10T02:57:35;9.38;;;8.55;;
12493;SDS011;8260;51.422;6.786;2023-06-10T03:00:04;13.02;;;8.70;;
12493;SDS011;8260;51.422;6.786;2023-06-10T03:02:36;9.38;;;8.48;;
12493;SDS011;8260;51.422;6.786;2023-06-10T03:05:07;10.25;;;9.40;;
12493;SDS011;8260;51.422;6.786;2023-06-10T03:07:37;10.60;;;9.10;;
12493;SDS011;8260;51.422;6.786;2023-06-10T03:10:06;13.98;;;9.70;;
12493;SDS011;8260;51.422;6.786;2023-06-10T03:12:35;9.43;;;8.57;;
12493;SDS011;8260;51.422;6.786;2023-06-10T03:15:04;11.10;;;9.48;;
12493;SDS011;8260;51.422;6.786;2023-06-10T03:17:33;10.52;;;9.52;;
12493;SDS011;8260;51.422;6.786;2023-06-10T03:20:02;11.88;;;8.70;;
12493;SDS011;8260;51.422;6.786;2023-06-10T03:22:33;9.80;;;8.80;;
12493;SDS011;8260;51.422;6.786;2023-06-10T03:25:02;9.73;;;8.82;;
12493;SDS011;8260;51.422;6.786;2023-06-10T03:27:30;10.52;;;9.43;;
12493;SDS011;8260;51.422;6.786;2023-06-10T03:29:59;10.48;;;9.48;;
12493;SDS011;8260;51.422;6.786;2023-06-10T03:32:28;10.82;;;9.05;;
12493;SDS011;8260;51.422;6.786;2023-06-10T03:34:56;9.77;;;8.82;;
12493;SDS011;8260;51.422;6.786;2023-06-10T03:37:25;12.82;;;9.57;;
12493;SDS011;8260;51.422;6.786;2023-06-10T03:39:54;10.70;;;9.70;;
12493;SDS011;8260;51.422;6.786;2023-06-10T03:42:23;10.73;;;9.73;;
12493;SDS011;8260;51.422;6.786;2023-06-10T03:44:52;11.60;;;10.25;;
12493;SDS011;8260;51.422;6.786;2023-06-10T03:47:21;11.18;;;10.13;;
12493;SDS011;8260;51.422;6.786;2023-06-10T03:49:50;11.60;;;10.50;;
12493;SDS011;8260;51.422;6.786;2023-06-10T03:52:19;12.77;;;10.15;;
12493;SDS011;8260;51.422;6.786;2023-06-10T03:54:47;11.88;;;10.77;;
12493;SDS011;8260;51.422;6.786;2023-06-10T03:57:17;11.57;;;10.48;;
12493;SDS011;8260;51.422;6.786;2023-06-10T03:59:46;12.05;;;10.43;;
12493;SDS011;8260;51.422;6.786;2023-06-10T04:02:15;11.82;;;10.48;;
12493;SDS011;8260;51.422;6.786;2023-06-10T04:04:44;12.20;;;10.88;;
12493;SDS011;8260;51.422;6.786;2023-06-10T04:07:13;12.70;;;11.55;;
12493;SDS011;8260;51.422;6.786;2023-06-10T04:09:41;11.20;;;10.23;;
12493;SDS011;8260;51.422;6.786;2023-06-10T04:12:10;12.32;;;11.13;;
12493;SDS011;8260;51.422;6.786;2023-06-10T04:14:40;11.52;;;10.48;;
12493;SDS011;8260;51.422;6.786;2023-06-10T04:17:09;12.57;;;10.88;;
12493;SDS011;8260;51.422;6.786;2023-06-10T04:19:38;12.30;;;11.05;;
12493;SDS011;8260;51.422;6.786;2023-06-10T04:22:06;12.00;;;10.80;;
12493;SDS011;8260;51.422;6.786;2023-06-10T04:24:35;11.73;;;10.73;;
12493;SDS011;8260;51.422;6.786;2023-06-10T04:27:04;12.80;;;11.60;;
12493;SDS011;8260;51.422;6.786;2023-06-10T04:29:32;13.20;;;11.90;;
12493;SDS011;8260;51.422;6.786;2023-06-10T04:32:03;14.48;;;12.98;;
12493;SDS011;8260;51.422;6.786;2023-06-10T04:34:33;13.55;;;12.32;;
12493;SDS011;8260;51.422;6.786;2023-06-10T04:37:01;14.05;;;12.65;;
12493;SDS011;8260;51.422;6.786;2023-06-10T04:39:30;13.07;;;11.43;;
12493;SDS011;8260;51.422;6.786;2023-06-10T04:42:00;12.80;;;11.65;;
12493;SDS011;8260;51.422;6.786;2023-06-10T04:44:29;13.00;;;11.90;;
12493;SDS011;8260;51.422;6.786;2023-06-10T04:46:58;13.52;;;12.15;;
12493;SDS011;8260;51.422;6.786;2023-06-10T04:49:28;14.23;;;12.77;;
12493;SDS011;8260;51.422;6.786;2023-06-10T04:51:57;13.63;;;12.35;;
12493;SDS011;8260;51.422;6.786;2023-06-10T04:54:26;13.63;;;12.23;;
12493;SDS011;8260;51.422;6.786;2023-06-10T04:56:55;13.93;;;12.52;;
12493;SDS011;8260;51.422;6.786;2023-06-10T04:59:23;13.27;;;12.07;;
12493;SDS011;8260;51.422;6.786;2023-06-10T05:01:52;13.02;;;11.82;;
12493;SDS011;8260;51.422;6.786;2023-06-10T05:04:21;12.23;;;11.13;;
12493;SDS011;8260;51.422;6.786;2023-06-10T05:06:51;13.05;;;11.77;;
12493;SDS011;8260;51.422;6.786;2023-06-10T05:09:20;12.93;;;11.73;;
12493;SDS011;8260;51.422;6.786;2023-06-10T05:11:48;13.25;;;12.00;;
12493;SDS011;8260;51.422;6.786;2023-06-10T05:14:17;12.20;;;11.00;;
12493;SDS011;8260;51.422;6.786;2023-06-10T05:16:47;12.65;;;11.38;;
12493;SDS011;8260;51.422;6.786;2023-06-10T05:19:15;13.45;;;12.07;;
12493;SDS011;8260;51.422;6.786;2023-06-10T05:21:44;12.93;;;11.65;;
12493;SDS011;8260;51.422;6.786;2023-06-10T05:24:14;12.20;;;10.95;;
12493;SDS011;8260;51.422;6.786;2023-06-10T05:26:43;11.75;;;10.55;;
12493;SDS011;8260;51.422;6.786;2023-06-10T05:29:13;12.13;;;10.95;;
12493;SDS011;8260;51.422;6.786;2023-06-10T05:31:41;13.65;;;10.07;;
12493;SDS011;8260;51.422;6.786;2023-06-10T05:34:10;11.35;;;9.88;;
12493;SDS011;8260;51.422;6.786;2023-06-10T05:36:39;13.50;;;10.40;;
12493;SDS011;8260;51.422;6.786;2023-06-10T05:39:07;12.52;;;11.18;;
12493;SDS011;8260;51.422;6.786;2023-06-10T05:41:37;15.88;;;11.45;;
12493;SDS011;8260;51.422;6.786;2023-06-10T05:44:06;11.63;;;10.43;;
12493;SDS011;8260;51.422;6.786;2023-06-10T05:46:37;12.30;;;10.15;;
12493;SDS011;8260;51.422;6.786;2023-06-10T05:49:05;11.90;;;10.73;;
12493;SDS011;8260;51.422;6.786;2023-06-10T05:51:34;10.48;;;9.48;;
12493;SDS011;8260;51.422;6.786;2023-06-10T05:54:04;10.63;;;9.63;;
12493;SDS011;8260;51.422;6.786;2023-06-10T05:56:32;12.95;;;9.77;;
12493;SDS011;8260;51.422;6.786;2023-06-10T05:59:02;11.65;;;9.80;;
12493;SDS011;8260;51.422;6.786;2023-06-10T06:01:30;10.40;;;9.32;;
12493;SDS011;8260;51.422;6.786;2023-06-10T06:03:59;9.95;;;8.95;;
12493;SDS011;8260;51.422;6.786;2023-06-10T06:06:28;11.70;;;9.15;;
12493;SDS011;8260;51.422;6.786;2023-06-10T06:08:56;10.18;;;9.20;;
12493;SDS011;8260;51.422;6.786;2023-06-10T06:11:24;10.18;;;9.18;;
12493;SDS011;8260;51.422;6.786;2023-06-10T06:13:53;10.00;;;9.00;;
12493;SDS011;8260;51.422;6.786;2023-06-10T06:16:23;10.13;;;9.10;;
12493;SDS011;8260;51.422;6.786;2023-06-10T06:18:52;10.75;;;9.68;;
12493;SDS011;8260;51.422;6.786;2023-06-10T06:21:20;10.52;;;9.43;;
12493;SDS011;8260;51.422;6.786;2023-06-10T06:23:49;10.18;;;8.55;;
12493;SDS011;8260;51.422;6.786;2023-06-10T06:26:18;9.93;;;8.93;;
12493;SDS011;8260;51.422;6.786;2023-06-10T06:28:47;10.27;;;8.15;;
12493;SDS011;8260;51.422;6.786;2023-06-10T06:31:15;8.95;;;8.05;;
12493;SDS011;8260;51.422;6.786;2023-06-10T06:33:45;9.35;;;8.45;;
12493;SDS011;8260;51.422;6.786;2023-06-10T06:36:14;9.07;;;7.72;;
12493;SDS011;8260;51.422;6.786;2023-06-10T06:38:42;12.75;;;8.00;;
12493;SDS011;8260;51.422;6.786;2023-06-10T06:41:11;8.35;;;7.65;;
12493;SDS011;8260;51.422;6.786;2023-06-10T06:43:39;8.48;;;7.43;;
12493;SDS011;8260;51.422;6.786;2023-06-10T06:46:09;9.13;;;8.23;;
12493;SDS011;8260;51.422;6.786;2023-06-10T06:48:41;8.23;;;7.43;;
12493;SDS011;8260;51.422;6.786;2023-06-10T06:51:11;9.73;;;7.78;;
12493;SDS011;8260;51.422;6.786;2023-06-10T06:53:39;8.50;;;7.70;;
12493;SDS011;8260;51.422;6.786;2023-06-10T06:56:10;9.52;;;7.85;;
12493;SDS011;8260;51.422;6.786;2023-06-10T06:58:39;7.97;;;7.18;;
12493;SDS011;8260;51.422;6.786;2023-06-10T07:01:07;8.43;;;7.10;;
12493;SDS011;8260;51.422;6.786;2023-06-10T07:03:36;9.57;;;7.63;;
12493;SDS011;8260;51.422;6.786;2023-06-10T07:06:05;8.30;;;7.15;;
12493;SDS011;8260;51.422;6.786;2023-06-10T07:08:34;7.32;;;6.68;;
12493;SDS011;8260;51.422;6.786;2023-06-10T07:11:03;9.35;;;6.70;;
12493;SDS011;8260;51.422;6.786;2023-06-10T07:13:32;8.63;;;7.05;;
12493;SDS011;8260;51.422;6.786;2023-06-10T07:16:00;7.15;;;6.45;;
12493;SDS011;8260;51.422;6.786;2023-06-10T07:18:29;8.38;;;6.72;;
12493;SDS011;8260;51.422;6.786;2023-06-10T07:20:57;7.38;;;6.55;;
12493;SDS011;8260;51.422;6.786;2023-06-10T07:23:26;10.05;;;6.57;;
12493;SDS011;8260;51.422;6.786;2023-06-10T07:25:55;10.23;;;6.68;;
12493;SDS011;8260;51.422;6.786;2023-06-10T07:28:24;8.27;;;6.72;;
12493;SDS011;8260;51.422;6.786;2023-06-10T07:30:53;7.80;;;6.70;;
12493;SDS011;8260;51.422;6.786;2023-06-10T07:33:21;8.48;;;6.10;;
12493;SDS011;8260;51.422;6.786;2023-06-10T07:35:50;7.07;;;6.30;;
12493;SDS011;8260;51.422;6.786;2023-06-10T07:38:19;7.32;;;6.70;;
12493;SDS011;8260;51.422;6.786;2023-06-10T07:40:48;9.90;;;6.80;;
12493;SDS011;8260;51.422;6.786;2023-06-10T07:43:17;8.15;;;6.22;;
12493;SDS011;8260;51.422;6.786;2023-06-10T07:45:46;8.23;;;6.68;;
12493;SDS011;8260;51.422;6.786;2023-06-10T07:48:15;6.85;;;6.15;;
12493;SDS011;8260;51.422;6.786;2023-06-10T07:50:43;7.53;;;6.70;;
12493;SDS011;8260;51.422;6.786;2023-06-10T07:53:12;7.07;;;6.32;;
12493;SDS011;8260;51.422;6.786;2023-06-10T07:55:40;7.95;;;6.40;;
12493;SDS011;8260;51.422;6.786;2023-06-10T07:58:09;6.97;;;6.18;;
12493;SDS011;8260;51.422;6.786;2023-06-10T08:00:39;6.68;;;6.05;;
12493;SDS011;8260;51.422;6.786;2023-06-10T08:03:07;6.90;;;6.20;;
12493;SDS011;8260;51.422;6.786;2023-06-10T08:05:36;7.18;;;6.07;;
12493;SDS011;8260;51.422;6.786;2023-06-10T08:08:04;6.45;;;5.85;;
12493;SDS011;8260;51.422;6.786;2023-06-10T08:10:33;6.75;;;6.15;;
12493;SDS011;8260;51.422;6.786;2023-06-10T08:13:02;6.95;;;6.25;;
12493;SDS011;8260;51.422;6.786;2023-06-10T08:15:30;8.82;;;6.00;;
12493;SDS011;8260;51.422;6.786;2023-06-10T08:18:00;6.63;;;6.03;;
12493;SDS011;8260;51.422;6.786;2023-06-10T08:20:29;9.50;;;6.35;;
12493;SDS011;8260;51.422;6.786;2023-06-10T08:22:58;7.45;;;5.82;;
12493;SDS011;8260;51.422;6.786;2023-06-10T08:25:27;6.22;;;5.68;;
12493;SDS011;8260;51.422;6.786;2023-06-10T08:27:56;6.53;;;5.95;;
12493;SDS011;8260;51.422;6.786;2023-06-10T08:30:24;7.47;;;6.03;;
12493;SDS011;8260;51.422;6.786;2023-06-10T08:32:53;6.47;;;5.85;;
12493;SDS011;8260;51.422;6.786;2023-06-10T08:35:23;6.18;;;5.57;;
12493;SDS011;8260;51.422;6.786;2023-06-10T08:37:52;7.45;;;5.47;;
12493;SDS011;8260;51.422;6.786;2023-06-10T08:40:20;6.78;;;6.15;;
12493;SDS011;8260;51.422;6.786;2023-06-10T08:42:52;6.68;;;6.07;;
12493;SDS011;8260;51.422;6.786;2023-06-10T08:45:21;8.25;;;5.95;;
12493;SDS011;8260;51.422;6.786;2023-06-10T08:47:51;7.00;;;6.30;;
12493;SDS011;8260;51.422;6.786;2023-06-10T08:50:23;8.60;;;6.05;;
12493;SDS011;8260;51.422;6.786;2023-06-10T08:52:53;7.22;;;6.15;;
12493;SDS011;8260;51.422;6.786;2023-06-10T08:55:23;6.65;;;6.00;;
12493;SDS011;8260;51.422;6.786;2023-06-10T08:57:58;7.47;;;5.97;;
12493;SDS011;8260;51.422;6.786;2023-06-10T09:00:28;7.68;;;6.38;;
12493;SDS011;8260;51.422;6.786;2023-06-10T09:02:57;7.55;;;6.45;;
12493;SDS011;8260;51.422;6.786;2023-06-10T09:05:32;9.27;;;5.78;;
12493;SDS011;8260;51.422;6.786;2023-06-10T09:08:03;8.60;;;5.88;;
12493;SDS011;8260;51.422;6.786;2023-06-10T09:10:34;7.07;;;6.38;;
12493;SDS011;8260;51.422;6.786;2023-06-10T09:13:03;6.85;;;6.25;;
12493;SDS011;8260;51.422;6.786;2023-06-10T09:15:31;7.30;;;5.97;;
12493;SDS011;8260;51.422;6.786;2023-06-10T09:18:00;6.90;;;6.18;;
12493;SDS011;8260;51.422;6.786;2023-06-10T09:20:33;7.35;;;6.60;;
12493;SDS011;8260;51.422;6.786;2023-06-10T09:23:02;7.53;;;5.85;;
12493;SDS011;8260;51.422;6.786;2023-06-10T09:25:34;19.98;;;7.97;;
12493;SDS011;8260;51.422;6.786;2023-06-10T09:28:04;8.35;;;7.35;;
12493;SDS011;8260;51.422;6.786;2023-06-10T09:30:33;6.90;;;6.22;;
12493;SDS011;8260;51.422;6.786;2023-06-10T09:33:03;7.90;;;6.10;;
12493;SDS011;8260;51.422;6.786;2023-06-10T09:35:45;6.63;;;5.90;;
12493;SDS011;8260;51.422;6.786;2023-06-10T09:38:14;7.05;;;5.75;;
12493;SDS011;8260;51.422;6.786;2023-06-10T09:40:48;8.30;;;6.38;;
12493;SDS011;8260;51.422;6.786;2023-06-10T09:43:17;8.68;;;5.78;;
12493;SDS011;8260;51.422;6.786;2023-06-10T09:45:47;8.18;;;6.88;;
12493;SDS011;8260;51.422;6.786;2023-06-10T09:48:15;6.90;;;6.22;;
12493;SDS011;8260;51.422;6.786;2023-06-10T09:50:45;6.90;;;6.25;;
12493;SDS011;8260;51.422;6.786;2023-06-10T09:53:14;6.30;;;5.75;;
12493;SDS011;8260;51.422;6.786;2023-06-10T09:55:45;7.68;;;6.55;;
12493;SDS011;8260;51.422;6.786;2023-06-10T09:58:14;8.00;;;6.15;;
12493;SDS011;8260;51.422;6.786;2023-06-10T10:00:42;6.78;;;6.07;;
12493;SDS011;8260;51.422;6.786;2023-06-10T10:03:11;6.57;;;5.97;;
12493;SDS011;8260;51.422;6.786;2023-06-10T10:05:52;10.15;;;6.00;;
12493;SDS011;8260;51.422;6.786;2023-06-10T10:08:26;10.93;;;6.15;;
12493;SDS011;8260;51.422;6.786;2023-06-10T10:10:56;7.22;;;5.95;;
12493;SDS011;8260;51.422;6.786;2023-06-10T10:13:25;6.97;;;6.25;;
12493;SDS011;8260;51.422;6.786;2023-06-10T10:15:54;8.38;;;6.78;;
12493;SDS011;8260;51.422;6.786;2023-06-10T10:18:24;7.95;;;6.25;;
12493;SDS011;8260;51.422;6.786;2023-06-10T10:20:59;7.55;;;6.82;;
12493;SDS011;8260;51.422;6.786;2023-06-10T10:23:29;8.73;;;6.60;;
12493;SDS011;8260;51.422;6.786;2023-06-10T10:26:00;10.55;;;6.82;;
12493;SDS011;8260;51.422;6.786;2023-06-10T10:28:34;8.98;;;6.47;;
12493;SDS011;8260;51.422;6.786;2023-06-10T10:31:06;7.00;;;6.30;;
12493;SDS011;8260;51.422;6.786;2023-06-10T10:33:40;8.57;;;6.35;;
12493;SDS011;8260;51.422;6.786;2023-06-10T10:36:12;7.80;;;6.47;;
12493;SDS011;8260;51.422;6.786;2023-06-10T10:38:41;6.68;;;5.85;;
12493;SDS011;8260;51.422;6.786;2023-06-10T10:41:09;8.43;;;7.20;;
12493;SDS011;8260;51.422;6.786;2023-06-10T10:43:39;8.25;;;7.45;;
12493;SDS011;8260;51.422;6.786;2023-06-10T10:46:09;9.27;;;7.10;;
12493;SDS011;8260;51.422;6.786;2023-06-10T10:48:40;7.43;;;6.82;;
12493;SDS011;8260;51.422;6.786;2023-06-10T10:51:09;10.23;;;7.10;;
12493;SDS011;8260;51.422;6.786;2023-06-10T10:53:39;7.43;;;6.45;;
12493;SDS011;8260;51.422;6.786;2023-06-10T10:56:12;7.47;;;6.50;;
12493;SDS011;8260;51.422;6.786;2023-06-10T10:58:41;7.97;;;6.50;;
12493;SDS011;8260;51.422;6.786;2023-06-10T11:01:10;8.70;;;6.85;;
12493;SDS011;8260;51.422;6.786;2023-06-10T11:03:42;7.63;;;6.35;;
12493;SDS011;8260;51.422;6.786;2023-06-10T11:06:14;7.45;;;6.75;;
12493;SDS011;8260;51.422;6.786;2023-06-10T11:08:47;7.13;;;6.50;;
12493;SDS011;8260;51.422;6.786;2023-06-10T11:11:19;7.30;;;6.80;;
12493;SDS011;8260;51.422;6.786;2023-06-10T11:13:58;7.70;;;7.10;;
12493;SDS011;8260;51.422;6.786;2023-06-10T11:16:28;7.30;;;6.60;;
12493;SDS011;8260;51.422;6.786;2023-06-10T11:18:57;8.02;;;6.65;;
12493;SDS011;8260;51.422;6.786;2023-06-10T11:21:25;7.25;;;6.55;;
12493;SDS011;8260;51.422;6.786;2023-06-10T11:23:58;7.35;;;6.40;;
12493;SDS011;8260;51.422;6.786;2023-06-10T11:26:30;6.78;;;6.18;;
12493;SDS011;8260;51.422;6.786;2023-06-10T11:29:05;7.38;;;6.25;;
12493;SDS011;8260;51.422;6.786;2023-06-10T11:31:39;9.95;;;6.70;;
12493;SDS011;8260;51.422;6.786;2023-06-10T11:34:08;6.82;;;6.13;;
12493;SDS011;8260;51.422;6.786;2023-06-10T11:36:37;6.82;;;6.22;;
12493;SDS011;8260;51.422;6.786;2023-06-10T11:39:10;6.93;;;6.30;;
12493;SDS011;8260;51.422;6.786;2023-06-10T11:41:39;8.30;;;6.40;;
12493;SDS011;8260;51.422;6.786;2023-06-10T11:44:09;6.60;;;6.05;;
12493;SDS011;8260;51.422;6.786;2023-06-10T11:46:37;6.65;;;6.05;;
12493;SDS011;8260;51.422;6.786;2023-06-10T11:49:06;9.52;;;6.72;;
12493;SDS011;8260;51.422;6.786;2023-06-10T11:51:35;7.43;;;6.70;;
12493;SDS011;8260;51.422;6.786;2023-06-10T11:54:05;6.80;;;6.20;;
12493;SDS011;8260;51.422;6.786;2023-06-10T11:56:35;6.90;;;6.20;;
12493;SDS011;8260;51.422;6.786;2023-06-10T11:59:07;7.30;;;6.60;;
12493;SDS011;8260;51.422;6.786;2023-06-10T12:01:36;7.60;;;6.90;;
12493;SDS011;8260;51.422;6.786;2023-06-10T12:04:10;7.20;;;6.53;;
12493;SDS011;8260;51.422;6.786;2023-06-10T12:06:40;7.18;;;6.43;;
12493;SDS011;8260;51.422;6.786;2023-06-10T12:09:13;6.88;;;6.28;;
12493;SDS011;8260;51.422;6.786;2023-06-10T12:11:51;6.80;;;6.20;;
12493;SDS011;8260;51.422;6.786;2023-06-10T12:17:08;7.95;;;6.80;;
12493;SDS011;8260;51.422;6.786;2023-06-10T12:19:38;7.20;;;6.50;;
12493;SDS011;8260;51.422;6.786;2023-06-10T12:22:07;7.68;;;6.93;;
12493;SDS011;8260;51.422;6.786;2023-06-10T12:24:42;6.90;;;6.30;;
12493;SDS011;8260;51.422;6.786;2023-06-10T12:27:13;8.40;;;6.07;;
12493;SDS011;8260;51.422;6.786;2023-06-10T12:29:50;7.88;;;7.18;;
12493;SDS011;8260;51.422;6.786;2023-06-10T12:32:20;7.22;;;6.45;;
12493;SDS011;8260;51.422;6.786;2023-06-10T12:34:51;7.80;;;7.15;;
12493;SDS011;8260;51.422;6.786;2023-06-10T12:37:30;7.50;;;6.90;;
12493;SDS011;8260;51.422;6.786;2023-06-10T12:40:01;7.85;;;7.07;;
12493;SDS011;8260;51.422;6.786;2023-06-10T12:42:31;7.22;;;6.63;;
12493;SDS011;8260;51.422;6.786;2023-06-10T12:45:01;7.35;;;6.65;;
12493;SDS011;8260;51.422;6.786;2023-06-10T12:47:30;7.78;;;7.07;;
12493;SDS011;8260;51.422;6.786;2023-06-10T12:50:02;6.90;;;6.40;;
12493;SDS011;8260;51.422;6.786;2023-06-10T12:52:31;9.25;;;7.80;;
12493;SDS011;8260;51.422;6.786;2023-06-10T12:54:59;8.10;;;6.90;;
12493;SDS011;8260;51.422;6.786;2023-06-10T12:57:28;7.35;;;6.72;;
12493;SDS011;8260;51.422;6.786;2023-06-10T12:59:59;8.07;;;7.38;;
12493;SDS011;8260;51.422;6.786;2023-06-10T13:02:31;7.60;;;6.68;;
12493;SDS011;8260;51.422;6.786;2023-06-10T13:05:00;7.70;;;7.00;;
12493;SDS011;8260;51.422;6.786;2023-06-10T13:07:29;7.20;;;6.60;;
12493;SDS011;8260;51.422;6.786;2023-06-10T13:09:58;7.18;;;6.47;;
12493;SDS011;8260;51.422;6.786;2023-06-10T13:12:27;7.93;;;7.30;;
12493;SDS011;8260;51.422;6.786;2023-06-10T13:15:14;6.97;;;6.28;;
12493;SDS011;8260;51.422;6.786;2023-06-10T13:17:43;7.43;;;6.78;;
12493;SDS011;8260;51.422;6.786;2023-06-10T13:20:12;7.35;;;6.75;;
12493;SDS011;8260;51.422;6.786;2023-06-10T13:22:41;8.30;;;6.53;;
12493;SDS011;8260;51.422;6.786;2023-06-10T13:25:09;7.65;;;6.90;;
12493;SDS011;8260;51.422;6.786;2023-06-10T13:27:39;8.13;;;6.70;;
12493;SDS011;8260;51.422;6.786;2023-06-10T13:30:09;7.72;;;6.97;;
12493;SDS011;8260;51.422;6.786;2023-06-10T13:32:39;7.93;;;6.38;;
12493;SDS011;8260;51.422;6.786;2023-06-10T13:35:08;7.78;;;6.75;;
12493;SDS011;8260;51.422;6.786;2023-06-10T13:37:37;7.10;;;6.50;;
12493;SDS011;8260;51.422;6.786;2023-06-10T13:40:06;8.13;;;7.35;;
12493;SDS011;8260;51.422;6.786;2023-06-10T13:42:36;9.40;;;7.32;;
12493;SDS011;8260;51.422;6.786;2023-06-10T13:45:05;7.65;;;6.85;;
12493;SDS011;8260;51.422;6.786;2023-06-10T13:47:34;7.65;;;6.95;;
12493;SDS011;8260;51.422;6.786;2023-06-10T13:50:05;7.90;;;7.30;;
12493;SDS011;8260;51.422;6.786;2023-06-10T13:52:34;7.47;;;6.95;;
12493;SDS011;8260;51.422;6.786;2023-06-10T13:55:03;7.30;;;6.75;;
12493;SDS011;8260;51.422;6.786;2023-06-10T13:57:34;8.20;;;7.30;;
12493;SDS011;8260;51.422;6.786;2023-06-10T14:00:03;7.53;;;6.82;;
12493;SDS011;8260;51.422;6.786;2023-06-10T14:02:34;7.35;;;6.53;;
12493;SDS011;8260;51.422;6.786;2023-06-10T14:05:08;7.30;;;6.80;;
12493;SDS011;8260;51.422;6.786;2023-06-10T14:07:37;7.05;;;6.45;;
12493;SDS011;8260;51.422;6.786;2023-06-10T14:10:07;7.60;;;6.90;;
12493;SDS011;8260;51.422;6.786;2023-06-10T14:12:36;8.18;;;7.30;;
12493;SDS011;8260;51.422;6.786;2023-06-10T14:15:05;8.98;;;7.13;;
12493;SDS011;8260;51.422;6.786;2023-06-10T14:17:35;8.25;;;7.43;;
12493;SDS011;8260;51.422;6.786;2023-06-10T14:20:04;7.80;;;7.00;;
12493;SDS011;8260;51.422;6.786;2023-06-10T14:22:35;8.70;;;6.85;;
12493;SDS011;8260;51.422;6.786;2023-06-10T14:25:03;7.65;;;6.95;;
12493;SDS011;8260;51.422;6.786;2023-06-10T14:27:32;7.85;;;7.00;;
12493;SDS011;8260;51.422;6.786;2023-06-10T14:30:01;7.95;;;7.10;;
12493;SDS011;8260;51.422;6.786;2023-06-10T14:32:31;7.22;;;6.53;;
12493;SDS011;8260;51.422;6.786;2023-06-10T14:34:59;7.75;;;6.95;;
12493;SDS011;8260;51.422;6.786;2023-06-10T14:37:28;7.70;;;7.10;;
12493;SDS011;8260;51.422;6.786;2023-06-10T14:39:58;8.10;;;7.00;;
12493;SDS011;8260;51.422;6.786;2023-06-10T14:42:26;7.10;;;6.47;;
12493;SDS011;8260;51.422;6.786;2023-06-10T14:44:55;7.53;;;6.85;;
12493;SDS011;8260;51.422;6.786;2023-06-10T14:47:23;7.03;;;6.43;;
12493;SDS011;8260;51.422;6.786;2023-06-10T14:49:52;9.77;;;7.13;;
12493;SDS011;8260;51.422;6.786;2023-06-10T14:52:21;6.95;;;6.35;;
12493;SDS011;8260;51.422;6.786;2023-06-10T14:54:49;8.07;;;7.28;;
12493;SDS011;8260;51.422;6.786;2023-06-10T14:57:19;8.02;;;6.90;;
12493;SDS011;8260;51.422;6.786;2023-06-10T14:59:48;8.65;;;6.88;;
12493;SDS011;8260;51.422;6.786;2023-06-10T15:02:16;7.30;;;6.70;;
12493;SDS011;8260;51.422;6.786;2023-06-10T15:04:45;6.90;;;6.38;;
12493;SDS011;8260;51.422;6.786;2023-06-10T15:07:13;7.07;;;6.43;;
12493;SDS011;8260;51.422;6.786;2023-06-10T15:09:42;7.72;;;7.00;;
12493;SDS011;8260;51.422;6.786;2023-06-10T15:12:10;7.80;;;7.03;;